Time;durP1;ratioP1;P1;durP2;ratioP2;P2;SDS_P1;SDS_P2;PMS_P1;PMS_P2;Temp;Humidity;BMP_temperature;BMP_pressure;BME280_temperature;BME280_humidity;BME280_pressure;Samples;Min_cycle;Max_cycle;Signal;HPM_P1;HPM_P2
2022/04/03 00:02:15;;;;;;;16.20;5.70;;;;;;;;;;738675;186;917839;-61
2022/04/03 00:04:40;;;;;;;20.97;6.03;;;;;;;;;;745520;184;919330;-60
2022/04/03 00:07:06;;;;;;;10.80;3.90;;;;;;;;;;753696;184;935601;-62
2022/04/03 00:09:33;;;;;;;15.90;5.27;;;;;;;;;;735954;185;919605;-60
2022/04/03 00:11:58;;;;;;;16.30;6.30;;;;;;;;;;744053;185;1020376;-60
2022/04/03 00:14:24;;;;;;;9.65;3.67;;;;;;;;;;752515;186;904917;-61
2022/04/03 00:16:50;;;;;;;9.50;4.73;;;;;;;;;;742704;187;1019995;-61
2022/04/03 00:19:16;;;;;;;12.93;4.70;;;;;;;;;;747336;187;918924;-61
2022/04/03 00:21:43;;;;;;;22.60;4.82;;;;;;;;;;753523;185;918962;-60
2022/04/03 00:24:08;;;;;;;7.80;3.10;;;;;;;;;;748957;186;919037;-61
2022/04/03 00:26:34;;;;;;;7.87;3.70;;;;;;;;;;748250;184;919827;-61
2022/04/03 00:29:00;;;;;;;8.18;5.07;;;;;;;;;;745407;187;918397;-62
2022/04/03 00:31:26;;;;;;;10.03;3.67;;;;;;;;;;737529;188;1019913;-61
2022/04/03 00:33:52;;;;;;;19.77;4.80;;;;;;;;;;745867;186;920129;-62
2022/04/03 00:36:18;;;;;;;12.83;5.40;;;;;;;;;;748102;184;918011;-63
2022/04/03 00:38:45;;;;;;;9.00;4.97;;;;;;;;;;748949;184;919404;-62
2022/04/03 00:41:10;;;;;;;16.60;6.40;;;;;;;;;;746105;185;918659;-62
2022/04/03 00:43:35;;;;;;;18.07;4.47;;;;;;;;;;743203;185;919910;-62
2022/04/03 00:46:01;;;;;;;15.20;5.43;;;;;;;;;;745367;185;919159;-62
2022/04/03 00:48:27;;;;;;;6.57;3.53;;;;;;;;;;738074;188;918189;-61
2022/04/03 00:50:53;;;;;;;9.17;4.80;;;;;;;;;;739096;186;919031;-60
2022/04/03 00:53:19;;;;;;;8.93;4.60;;;;;;;;;;743029;187;919397;-62
2022/04/03 00:55:44;;;;;;;9.47;3.40;;;;;;;;;;745621;188;920448;-62
2022/04/03 00:58:10;;;;;;;17.77;4.73;;;;;;;;;;717730;192;919111;-62
2022/04/03 01:00:36;;;;;;;8.87;4.63;;;;;;;;;;717772;189;918915;-63
2022/04/03 01:03:02;;;;;;;16.57;4.87;;;;;;;;;;741408;186;918575;-62
2022/04/03 01:05:28;;;;;;;19.47;5.30;;;;;;;;;;740236;186;919007;-62
2022/04/03 01:07:54;;;;;;;8.03;4.03;;;;;;;;;;742526;184;919426;-62
2022/04/03 01:10:19;;;;;;;4.87;3.50;;;;;;;;;;747674;185;1020996;-61
2022/04/03 01:12:45;;;;;;;13.33;3.60;;;;;;;;;;751229;185;919265;-62
2022/04/03 01:15:11;;;;;;;12.37;6.32;;;;;;;;;;737796;187;918647;-62
2022/04/03 01:17:37;;;;;;;9.00;5.23;;;;;;;;;;741049;185;924206;-61
2022/04/03 01:20:03;;;;;;;15.37;4.70;;;;;;;;;;751256;186;919094;-61
2022/04/03 01:22:29;;;;;;;13.90;5.00;;;;;;;;;;745087;186;919459;-62
2022/04/03 01:24:55;;;;;;;12.33;5.40;;;;;;;;;;743990;186;918219;-61
2022/04/03 01:27:21;;;;;;;15.60;4.87;;;;;;;;;;751714;185;918927;-61
2022/04/03 01:29:48;;;;;;;6.83;3.40;;;;;;;;;;746950;185;919955;-62
2022/04/03 01:32:12;;;;;;;9.83;4.90;;;;;;;;;;740167;187;919951;-62
2022/04/03 01:34:38;;;;;;;8.57;5.43;;;;;;;;;;742505;188;918697;-61
2022/04/03 01:37:04;;;;;;;7.53;4.10;;;;;;;;;;739933;188;919988;-63
2022/04/03 01:39:30;;;;;;;10.18;4.50;;;;;;;;;;744237;184;1049921;-61
2022/04/03 01:41:56;;;;;;;6.43;3.30;;;;;;;;;;739218;185;1019605;-60
2022/04/03 01:44:21;;;;;;;10.20;4.17;;;;;;;;;;733159;188;918915;-62
2022/04/03 01:46:47;;;;;;;19.17;5.57;;;;;;;;;;741625;185;940195;-62
2022/04/03 01:49:13;;;;;;;9.33;3.80;;;;;;;;;;742902;188;1016656;-62
2022/04/03 01:51:39;;;;;;;11.47;4.90;;;;;;;;;;750827;187;918294;-62
2022/04/03 01:54:05;;;;;;;10.70;5.27;;;;;;;;;;748750;187;918903;-63
2022/04/03 01:56:34;;;;;;;11.20;4.87;;;;;;;;;;743892;187;919339;-63
2022/04/03 01:58:57;;;;;;;7.83;4.43;;;;;;;;;;742635;186;920000;-60
2022/04/03 02:01:22;;;;;;;10.00;5.23;;;;;;;;;;740240;187;918323;-63
2022/04/03 02:03:49;;;;;;;13.48;5.70;;;;;;;;;;740568;187;921126;-62
2022/04/03 02:06:15;;;;;;;10.37;4.90;;;;;;;;;;747346;187;904078;-63
2022/04/03 02:08:40;;;;;;;10.70;4.80;;;;;;;;;;745188;185;917668;-62
2022/04/03 02:11:06;;;;;;;9.27;5.55;;;;;;;;;;746311;184;915430;-65
2022/04/03 02:13:32;;;;;;;7.73;4.10;;;;;;;;;;750411;185;918264;-63
2022/04/03 02:15:58;;;;;;;9.23;4.07;;;;;;;;;;752156;185;916459;-63
2022/04/03 02:18:24;;;;;;;11.00;6.20;;;;;;;;;;751812;185;915721;-62
2022/04/03 02:20:50;;;;;;;14.27;5.93;;;;;;;;;;746299;184;915294;-63
2022/04/03 02:23:16;;;;;;;17.33;6.13;;;;;;;;;;749360;187;915771;-63
2022/04/03 02:25:42;;;;;;;9.27;5.50;;;;;;;;;;751082;184;915102;-63
2022/04/03 02:28:10;;;;;;;10.50;5.47;;;;;;;;;;746620;184;918651;-62
2022/04/03 02:30:33;;;;;;;10.90;6.18;;;;;;;;;;750947;185;919140;-62
2022/04/03 02:32:59;;;;;;;11.20;5.50;;;;;;;;;;744068;185;919267;-63
2022/04/03 02:35:25;;;;;;;12.90;7.20;;;;;;;;;;744243;186;942059;-62
2022/04/03 02:37:52;;;;;;;13.27;5.72;;;;;;;;;;745213;185;918829;-62
2022/04/03 02:40:17;;;;;;;10.40;4.40;;;;;;;;;;751894;186;917966;-63
2022/04/03 02:42:43;;;;;;;10.00;5.47;;;;;;;;;;741644;184;919302;-62
2022/04/03 02:45:10;;;;;;;10.57;5.80;;;;;;;;;;745564;187;919667;-62
2022/04/03 02:47:34;;;;;;;13.23;5.40;;;;;;;;;;749506;187;916210;-62
2022/04/03 02:50:00;;;;;;;13.00;5.37;;;;;;;;;;745559;185;921748;-62
2022/04/03 02:52:26;;;;;;;7.27;4.60;;;;;;;;;;740188;185;927004;-63
2022/04/03 02:54:52;;;;;;;10.27;5.13;;;;;;;;;;749200;186;919173;-63
2022/04/03 02:57:18;;;;;;;7.12;6.10;;;;;;;;;;743829;186;916832;-63
2022/04/03 02:59:44;;;;;;;7.83;4.20;;;;;;;;;;746340;185;919210;-62
2022/04/03 03:02:10;;;;;;;7.73;4.70;;;;;;;;;;749922;184;919171;-62
2022/04/03 03:04:35;;;;;;;11.10;5.37;;;;;;;;;;739874;187;919353;-62
2022/04/03 03:07:02;;;;;;;12.30;6.33;;;;;;;;;;736671;188;919359;-62
2022/04/03 03:09:28;;;;;;;7.87;4.12;;;;;;;;;;741186;187;918254;-62
2022/04/03 03:11:54;;;;;;;13.63;5.07;;;;;;;;;;746584;187;918797;-61
2022/04/03 03:14:20;;;;;;;7.68;3.87;;;;;;;;;;745772;187;918815;-62
2022/04/03 03:16:45;;;;;;;7.50;4.80;;;;;;;;;;751590;185;918955;-63
2022/04/03 03:19:11;;;;;;;14.40;6.43;;;;;;;;;;746899;187;918986;-63
2022/04/03 03:21:37;;;;;;;10.43;3.77;;;;;;;;;;743577;186;918994;-63
2022/04/03 03:24:03;;;;;;;5.73;3.03;;;;;;;;;;745779;186;919253;-62
2022/04/03 03:26:29;;;;;;;12.00;5.47;;;;;;;;;;747696;186;919935;-61
2022/04/03 03:28:55;;;;;;;6.73;4.60;;;;;;;;;;746248;187;918359;-63
2022/04/03 03:31:21;;;;;;;9.17;3.83;;;;;;;;;;739936;185;1027354;-62
2022/04/03 03:33:46;;;;;;;6.85;4.37;;;;;;;;;;740701;187;919284;-63
2022/04/03 03:36:12;;;;;;;8.63;3.93;;;;;;;;;;750041;184;919130;-62
2022/04/03 03:38:38;;;;;;;7.70;4.73;;;;;;;;;;745810;185;919636;-62
2022/04/03 03:41:04;;;;;;;8.50;4.20;;;;;;;;;;739772;187;921525;-62
2022/04/03 03:43:30;;;;;;;9.50;3.93;;;;;;;;;;749110;187;919124;-65
2022/04/03 03:45:56;;;;;;;10.70;4.40;;;;;;;;;;747814;186;919695;-62
2022/04/03 03:48:21;;;;;;;9.23;4.30;;;;;;;;;;743312;186;919674;-63
2022/04/03 03:50:47;;;;;;;10.60;7.10;;;;;;;;;;754146;187;919278;-63
2022/04/03 03:53:13;;;;;;;10.87;4.80;;;;;;;;;;740940;187;918643;-62
2022/04/03 03:55:39;;;;;;;12.47;4.43;;;;;;;;;;737290;186;918589;-62
2022/04/03 03:58:05;;;;;;;11.55;4.62;;;;;;;;;;737975;187;919124;-63
2022/04/03 04:00:31;;;;;;;11.10;4.80;;;;;;;;;;746589;187;919324;-64
2022/04/03 04:02:56;;;;;;;11.13;3.47;;;;;;;;;;743517;187;919846;-63
2022/04/03 04:05:22;;;;;;;13.47;5.10;;;;;;;;;;742440;185;1021231;-64
2022/04/03 04:07:49;;;;;;;8.60;4.80;;;;;;;;;;749076;187;917864;-63
2022/04/03 04:10:14;;;;;;;11.97;6.03;;;;;;;;;;743288;187;918604;-63
2022/04/03 04:12:41;;;;;;;8.03;4.37;;;;;;;;;;743917;187;922383;-64
2022/04/03 04:15:07;;;;;;;7.67;5.07;;;;;;;;;;746095;185;919477;-64
2022/04/03 04:17:33;;;;;;;14.73;5.77;;;;;;;;;;746703;185;919726;-63
2022/04/03 04:19:59;;;;;;;9.80;5.97;;;;;;;;;;743083;184;918551;-62
2022/04/03 04:22:25;;;;;;;15.43;9.77;;;;;;;;;;739384;183;918654;-62
2022/04/03 04:24:50;;;;;;;10.35;6.07;;;;;;;;;;751719;185;919758;-63
2022/04/03 04:27:16;;;;;;;14.30;7.83;;;;;;;;;;743662;185;1020789;-62
2022/04/03 04:29:42;;;;;;;8.20;4.83;;;;;;;;;;744054;185;920048;-64
2022/04/03 04:32:08;;;;;;;12.73;6.30;;;;;;;;;;749485;184;918727;-63
2022/04/03 04:34:35;;;;;;;14.30;6.83;;;;;;;;;;747252;184;918703;-63
2022/04/03 04:37:00;;;;;;;13.43;6.40;;;;;;;;;;745624;185;921090;-63
2022/04/03 04:39:26;;;;;;;11.37;7.90;;;;;;;;;;750108;186;917836;-64
2022/04/03 04:41:52;;;;;;;12.43;6.33;;;;;;;;;;745512;184;918672;-64
2022/04/03 04:44:18;;;;;;;10.13;6.40;;;;;;;;;;746011;186;1038085;-63
2022/04/03 04:46:43;;;;;;;11.45;5.60;;;;;;;;;;742297;187;927994;-64
2022/04/03 04:49:09;;;;;;;9.20;6.10;;;;;;;;;;748748;185;918082;-62
2022/04/03 04:51:35;;;;;;;49.67;30.17;;;;;;;;;;742835;184;919190;-64
2022/04/03 04:54:01;;;;;;;36.90;19.40;;;;;;;;;;742737;185;920049;-63
2022/04/03 04:56:27;;;;;;;34.10;21.60;;;;;;;;;;746786;185;917302;-64
2022/04/03 04:58:53;;;;;;;19.97;16.30;;;;;;;;;;744622;186;918960;-64
2022/04/03 05:01:18;;;;;;;12.30;7.13;;;;;;;;;;743391;186;920599;-63
2022/04/03 05:03:44;;;;;;;13.63;6.20;;;;;;;;;;747368;184;918366;-62
2022/04/03 05:06:12;;;;;;;10.13;6.03;;;;;;;;;;738419;185;918909;-63
2022/04/03 05:08:36;;;;;;;10.70;8.13;;;;;;;;;;748057;185;920379;-63
2022/04/03 05:11:02;;;;;;;10.68;6.10;;;;;;;;;;748650;187;1022683;-64
2022/04/03 05:13:28;;;;;;;9.07;5.47;;;;;;;;;;743400;185;911287;-62
2022/04/03 05:15:54;;;;;;;8.63;3.13;;;;;;;;;;743984;187;918653;-63
2022/04/03 05:18:19;;;;;;;7.13;4.00;;;;;;;;;;742464;186;917366;-63
2022/04/03 05:20:46;;;;;;;7.80;5.27;;;;;;;;;;749330;186;881916;-64
2022/04/03 05:23:11;;;;;;;8.50;4.83;;;;;;;;;;743716;184;919560;-62
2022/04/03 05:25:37;;;;;;;11.88;7.50;;;;;;;;;;743520;187;924090;-62
2022/04/03 05:28:03;;;;;;;19.10;6.17;;;;;;;;;;746106;185;919955;-62
2022/04/03 05:30:29;;;;;;;10.03;5.83;;;;;;;;;;742319;187;917410;-63
2022/04/03 05:32:55;;;;;;;8.57;5.93;;;;;;;;;;741636;187;1021939;-62
2022/04/03 05:35:20;;;;;;;10.60;5.90;;;;;;;;;;744162;186;1020999;-62
2022/04/03 05:37:46;;;;;;;11.17;7.20;;;;;;;;;;741327;187;919236;-62
2022/04/03 05:40:13;;;;;;;7.87;5.72;;;;;;;;;;740197;185;917755;-62
2022/04/03 05:42:38;;;;;;;13.47;6.30;;;;;;;;;;738217;184;1010386;-62
2022/04/03 05:45:05;;;;;;;10.63;6.80;;;;;;;;;;746125;186;918759;-63
2022/04/03 05:47:30;;;;;;;12.57;6.10;;;;;;;;;;745109;183;917871;-63
2022/04/03 05:49:56;;;;;;;15.15;6.72;;;;;;;;;;743786;186;953945;-64
2022/04/03 05:52:22;;;;;;;12.13;5.97;;;;;;;;;;750426;186;921240;-63
2022/04/03 05:54:48;;;;;;;6.83;3.93;;;;;;;;;;744174;186;920283;-63
2022/04/03 05:57:14;;;;;;;15.87;5.10;;;;;;;;;;742341;187;919429;-62
2022/04/03 05:59:39;;;;;;;15.90;5.70;;;;;;;;;;745230;186;916108;-63
2022/04/03 06:02:05;;;;;;;14.93;6.20;;;;;;;;;;741709;187;925879;-63
2022/04/03 06:04:32;;;;;;;6.80;4.03;;;;;;;;;;739447;187;919399;-64
2022/04/03 06:06:58;;;;;;;9.13;3.67;;;;;;;;;;744462;187;919467;-62
2022/04/03 06:09:25;;;;;;;15.30;7.83;;;;;;;;;;749072;185;912585;-63
2022/04/03 06:11:52;;;;;;;17.80;7.90;;;;;;;;;;742617;185;918424;-62
2022/04/03 06:14:16;;;;;;;15.93;9.85;;;;;;;;;;742822;185;978294;-63
2022/04/03 06:16:42;;;;;;;11.85;5.97;;;;;;;;;;749012;185;921563;-62
2022/04/03 06:19:08;;;;;;;12.50;7.37;;;;;;;;;;745303;187;919643;-62
2022/04/03 06:21:34;;;;;;;12.47;6.60;;;;;;;;;;744813;187;919889;-63
2022/04/03 06:24:00;;;;;;;9.50;6.30;;;;;;;;;;748990;187;918743;-63
2022/04/03 06:26:26;;;;;;;11.23;6.90;;;;;;;;;;742446;185;910406;-62
2022/04/03 06:28:51;;;;;;;17.87;8.50;;;;;;;;;;744850;187;912405;-62
2022/04/03 06:31:17;;;;;;;15.17;7.30;;;;;;;;;;747365;186;917433;-61
2022/04/03 06:33:44;;;;;;;14.20;7.40;;;;;;;;;;746762;186;914784;-61
2022/04/03 06:36:11;;;;;;;21.07;5.90;;;;;;;;;;745909;187;914200;-62
2022/04/03 06:38:37;;;;;;;12.40;6.77;;;;;;;;;;743252;186;918346;-62
2022/04/03 06:41:04;;;;;;;14.27;6.97;;;;;;;;;;745775;187;918994;-62
2022/04/03 06:43:30;;;;;;;12.77;6.30;;;;;;;;;;745586;187;626175;-62
2022/04/03 06:45:56;;;;;;;9.90;6.00;;;;;;;;;;747085;187;626426;-62
2022/04/03 06:48:22;;;;;;;11.20;7.57;;;;;;;;;;745841;185;918110;-61
2022/04/03 06:50:47;;;;;;;11.60;7.50;;;;;;;;;;741305;187;918699;-61
2022/04/03 06:53:13;;;;;;;15.10;8.43;;;;;;;;;;736195;186;966375;-62
2022/04/03 06:55:40;;;;;;;19.00;10.37;;;;;;;;;;737982;187;918219;-61
2022/04/03 06:58:06;;;;;;;16.10;9.00;;;;;;;;;;748056;187;918653;-59
2022/04/03 07:00:31;;;;;;;13.83;7.20;;;;;;;;;;714744;194;1021584;-59
2022/04/03 07:02:57;;;;;;;35.67;17.67;;;;;;;;;;717642;194;919967;-59
2022/04/03 07:05:24;;;;;;;14.50;7.47;;;;;;;;;;743923;184;920402;-59
2022/04/03 07:07:52;;;;;;;17.25;6.62;;;;;;;;;;741392;189;919059;-58
2022/04/03 07:10:18;;;;;;;12.23;6.73;;;;;;;;;;742469;188;1021265;-59
2022/04/03 07:12:44;;;;;;;23.73;14.17;;;;;;;;;;737864;189;919922;-59
2022/04/03 07:15:12;;;;;;;8.07;5.50;;;;;;;;;;746181;187;919782;-58
2022/04/03 07:17:36;;;;;;;14.87;8.70;;;;;;;;;;737070;188;919062;-58
2022/04/03 07:20:02;;;;;;;12.10;7.13;;;;;;;;;;736520;189;919301;-58
2022/04/03 07:22:28;;;;;;;13.40;8.60;;;;;;;;;;747036;187;919032;-58
2022/04/03 07:24:54;;;;;;;18.40;12.10;;;;;;;;;;714842;193;920193;-58
2022/04/03 07:27:20;;;;;;;8.93;8.00;;;;;;;;;;713244;193;919455;-58
2022/04/03 07:29:46;;;;;;;13.17;8.30;;;;;;;;;;749011;187;1124440;-57
2022/04/03 07:32:13;;;;;;;11.60;7.55;;;;;;;;;;749763;187;918382;-58
2022/04/03 07:34:39;;;;;;;24.40;10.43;;;;;;;;;;750327;186;919209;-57
2022/04/03 07:37:05;;;;;;;9.90;7.30;;;;;;;;;;745281;187;920320;-61
2022/04/03 07:39:32;;;;;;;16.83;7.70;;;;;;;;;;744955;185;919183;-60
2022/04/03 07:41:59;;;;;;;37.03;14.97;;;;;;;;;;741847;187;919519;-60
2022/04/03 07:44:25;;;;;;;12.93;6.57;;;;;;;;;;741273;185;919480;-61
2022/04/03 07:46:51;;;;;;;13.68;7.80;;;;;;;;;;749879;184;919210;-60
2022/04/03 07:49:17;;;;;;;10.37;5.30;;;;;;;;;;744566;184;920347;-60
2022/04/03 07:51:43;;;;;;;15.93;7.17;;;;;;;;;;744191;184;918810;-59
2022/04/03 07:54:09;;;;;;;11.60;6.43;;;;;;;;;;747298;184;920196;-60
2022/04/03 07:56:35;;;;;;;9.83;6.50;;;;;;;;;;749119;185;917746;-60
2022/04/03 07:59:03;;;;;;;21.93;9.70;;;;;;;;;;745207;185;1021095;-60
2022/04/03 08:01:29;;;;;;;12.57;7.10;;;;;;;;;;743942;187;920308;-61
2022/04/03 08:03:55;;;;;;;21.63;8.00;;;;;;;;;;744749;185;919036;-60
2022/04/03 08:06:21;;;;;;;15.73;9.00;;;;;;;;;;742238;184;919100;-60
2022/04/03 08:08:47;;;;;;;17.03;9.37;;;;;;;;;;743580;184;1021934;-60
2022/04/03 08:11:12;;;;;;;16.70;8.80;;;;;;;;;;749812;184;828786;-60
2022/04/03 08:13:38;;;;;;;11.27;6.57;;;;;;;;;;717243;192;920250;-61
2022/04/03 08:16:04;;;;;;;24.77;10.20;;;;;;;;;;717663;188;919274;-61
2022/04/03 08:18:30;;;;;;;19.53;9.17;;;;;;;;;;745726;187;917516;-61
2022/04/03 08:20:56;;;;;;;13.17;7.77;;;;;;;;;;745124;186;1021254;-61
2022/04/03 08:23:22;;;;;;;14.17;8.20;;;;;;;;;;745669;186;919632;-61
2022/04/03 08:25:48;;;;;;;16.45;7.10;;;;;;;;;;744527;187;1020720;-61
2022/04/03 08:28:16;;;;;;;6.50;4.57;;;;;;;;;;750212;184;917645;-61
2022/04/03 08:30:39;;;;;;;15.73;8.17;;;;;;;;;;745115;186;919526;-61
2022/04/03 08:33:05;;;;;;;13.52;7.70;;;;;;;;;;741558;184;919640;-61
2022/04/03 08:35:31;;;;;;;11.50;7.93;;;;;;;;;;745403;184;919076;-61
2022/04/03 08:37:57;;;;;;;23.37;15.63;;;;;;;;;;745048;186;919633;-61
2022/04/03 08:40:23;;;;;;;20.20;10.93;;;;;;;;;;743278;186;919782;-61
2022/04/03 08:42:50;;;;;;;15.50;10.10;;;;;;;;;;745846;187;919908;-61
2022/04/03 08:45:16;;;;;;;12.07;7.43;;;;;;;;;;742682;187;919522;-62
2022/04/03 08:47:43;;;;;;;28.20;15.27;;;;;;;;;;739727;184;1021812;-61
2022/04/03 08:50:10;;;;;;;25.27;13.67;;;;;;;;;;741273;186;919443;-61
2022/04/03 08:52:37;;;;;;;13.10;9.47;;;;;;;;;;746295;187;631103;-61
2022/04/03 08:55:06;;;;;;;22.10;14.90;;;;;;;;;;744711;186;635391;-61
2022/04/03 08:57:33;;;;;;;14.80;8.20;;;;;;;;;;744273;184;623309;-61
2022/04/03 09:00:00;;;;;;;25.07;16.30;;;;;;;;;;746372;187;917572;-57
2022/04/03 09:02:27;;;;;;;19.05;13.10;;;;;;;;;;750617;185;1027979;-58
2022/04/03 09:04:54;;;;;;;15.60;10.77;;;;;;;;;;748086;187;619012;-58
2022/04/03 09:07:20;;;;;;;19.20;9.40;;;;;;;;;;742701;184;918203;-58
2022/04/03 09:09:47;;;;;;;10.27;6.87;;;;;;;;;;747447;187;918951;-58
2022/04/03 09:12:12;;;;;;;19.30;10.07;;;;;;;;;;750039;184;919589;-58
2022/04/03 09:14:44;;;;;;;16.65;8.48;;;;;;;;;;746301;186;916961;-58
2022/04/03 09:17:10;;;;;;;12.97;9.77;;;;;;;;;;745050;185;911209;-57
2022/04/03 09:19:36;;;;;;;16.02;8.13;;;;;;;;;;751135;185;919507;-59
2022/04/03 09:22:02;;;;;;;8.70;6.53;;;;;;;;;;745748;186;920040;-58
2022/04/03 09:24:27;;;;;;;22.73;11.87;;;;;;;;;;743100;185;1024021;-57
2022/04/03 09:26:57;;;;;;;11.20;7.67;;;;;;;;;;751500;185;920243;-58
2022/04/03 09:29:23;;;;;;;15.40;11.57;;;;;;;;;;740596;185;919392;-58
2022/04/03 09:31:49;;;;;;;31.43;19.00;;;;;;;;;;743861;185;1125763;-58
2022/04/03 09:34:15;;;;;;;38.30;18.20;;;;;;;;;;745573;185;917098;-58
2022/04/03 09:36:41;;;;;;;14.40;9.80;;;;;;;;;;745902;186;912492;-58
2022/04/03 09:39:08;;;;;;;14.20;12.20;;;;;;;;;;739610;187;918042;-58
2022/04/03 09:41:35;;;;;;;12.23;8.60;;;;;;;;;;740851;184;920310;-58
2022/04/03 09:44:01;;;;;;;16.60;6.97;;;;;;;;;;746746;184;918726;-58
2022/04/03 09:46:30;;;;;;;16.60;8.97;;;;;;;;;;744319;186;920136;-58
2022/04/03 09:48:52;;;;;;;11.27;7.10;;;;;;;;;;744274;185;920209;-58
2022/04/03 09:51:22;;;;;;;11.90;5.70;;;;;;;;;;751486;184;897194;-57
2022/04/03 09:53:47;;;;;;;18.55;9.95;;;;;;;;;;748796;185;915785;-58
2022/04/03 09:56:12;;;;;;;14.17;8.53;;;;;;;;;;747385;184;918299;-57
2022/04/03 09:58:45;;;;;;;11.00;7.67;;;;;;;;;;745432;187;920044;-58
2022/04/03 10:01:11;;;;;;;13.73;7.10;;;;;;;;;;749592;184;962404;-58
2022/04/03 10:03:36;;;;;;;13.03;7.40;;;;;;;;;;744750;185;919843;-58
2022/04/03 10:06:03;;;;;;;17.77;10.37;;;;;;;;;;743869;185;919562;-58
2022/04/03 10:08:29;;;;;;;14.60;8.87;;;;;;;;;;749160;184;920004;-58
2022/04/03 10:10:54;;;;;;;12.60;7.63;;;;;;;;;;745939;185;911554;-58
2022/04/03 10:13:20;;;;;;;12.63;7.17;;;;;;;;;;741548;185;919024;-58
2022/04/03 10:15:46;;;;;;;8.87;6.27;;;;;;;;;;743088;184;918789;-58
2022/04/03 10:18:13;;;;;;;17.93;12.23;;;;;;;;;;750113;186;912324;-57
2022/04/03 10:20:38;;;;;;;9.17;5.30;;;;;;;;;;743614;184;916234;-58
2022/04/03 10:23:03;;;;;;;11.30;5.87;;;;;;;;;;739817;186;916920;-58
2022/04/03 10:25:29;;;;;;;13.77;8.13;;;;;;;;;;747448;186;1096680;-58
2022/04/03 10:27:56;;;;;;;11.73;7.30;;;;;;;;;;745088;187;918292;-58
2022/04/03 10:30:22;;;;;;;13.60;7.43;;;;;;;;;;743741;184;919462;-58
2022/04/03 10:32:53;;;;;;;8.43;4.90;;;;;;;;;;750025;186;920120;-59
2022/04/03 10:35:19;;;;;;;11.17;5.13;;;;;;;;;;750687;186;920168;-58
2022/04/03 10:37:45;;;;;;;5.33;3.63;;;;;;;;;;744643;184;917533;-58
2022/04/03 10:40:13;;;;;;;8.73;5.43;;;;;;;;;;741004;186;917720;-58
2022/04/03 10:42:43;;;;;;;13.60;5.93;;;;;;;;;;745367;187;919664;-58
2022/04/03 10:45:20;;;;;;;10.40;6.13;;;;;;;;;;744994;184;920149;-57
2022/04/03 10:47:45;;;;;;;13.17;7.13;;;;;;;;;;745509;184;919320;-59
2022/04/03 10:50:11;;;;;;;6.73;3.83;;;;;;;;;;745878;186;920315;-60
2022/04/03 10:52:52;;;;;;;10.33;5.80;;;;;;;;;;746433;184;918403;-59
2022/04/03 10:55:20;;;;;;;5.30;3.30;;;;;;;;;;750986;186;918591;-59
2022/04/03 10:57:46;;;;;;;10.60;5.67;;;;;;;;;;746400;185;814714;-59
2022/04/03 11:00:27;;;;;;;11.07;6.53;;;;;;;;;;743583;186;918546;-59
2022/04/03 11:03:11;;;;;;;21.90;8.60;;;;;;;;;;740257;184;919046;-60
2022/04/03 11:05:46;;;;;;;9.63;6.17;;;;;;;;;;741690;187;913939;-60
2022/04/03 11:08:19;;;;;;;15.87;7.83;;;;;;;;;;738272;184;1019954;-59
2022/04/03 11:10:49;;;;;;;12.77;6.03;;;;;;;;;;743543;184;918738;-60
2022/04/03 11:13:14;;;;;;;16.83;10.30;;;;;;;;;;751624;186;919683;-59
2022/04/03 11:15:45;;;;;;;14.40;7.47;;;;;;;;;;745232;187;917762;-60
2022/04/03 11:18:16;;;;;;;10.52;5.80;;;;;;;;;;743153;186;919810;-60
2022/04/03 11:20:42;;;;;;;17.27;8.03;;;;;;;;;;743973;185;919037;-59
2022/04/03 11:23:08;;;;;;;13.93;6.30;;;;;;;;;;749383;184;919854;-59
2022/04/03 11:25:33;;;;;;;9.82;5.65;;;;;;;;;;744144;184;920186;-60
2022/04/03 11:27:59;;;;;;;10.27;5.33;;;;;;;;;;745340;184;919769;-60
2022/04/03 11:30:25;;;;;;;12.07;5.30;;;;;;;;;;751668;183;640235;-60
2022/04/03 11:32:51;;;;;;;9.90;5.35;;;;;;;;;;744844;184;919380;-60
2022/04/03 11:35:17;;;;;;;8.27;5.13;;;;;;;;;;744395;184;920126;-60
2022/04/03 11:37:44;;;;;;;13.00;5.83;;;;;;;;;;747342;186;920042;-59
2022/04/03 11:40:10;;;;;;;9.10;5.50;;;;;;;;;;742898;185;920612;-59
2022/04/03 11:42:35;;;;;;;9.30;6.00;;;;;;;;;;744816;185;919337;-60
2022/04/03 11:45:01;;;;;;;6.47;4.37;;;;;;;;;;743841;185;1021289;-61
2022/04/03 11:47:28;;;;;;;9.53;5.80;;;;;;;;;;750920;185;918065;-59
2022/04/03 11:49:59;;;;;;;8.07;4.70;;;;;;;;;;747131;186;919329;-60
2022/04/03 11:52:25;;;;;;;10.32;5.87;;;;;;;;;;747840;185;1021772;-59
2022/04/03 11:54:53;;;;;;;7.10;4.87;;;;;;;;;;745851;187;919867;-59
2022/04/03 11:57:19;;;;;;;13.20;8.00;;;;;;;;;;747434;186;918080;-59
2022/04/03 11:59:45;;;;;;;13.07;5.53;;;;;;;;;;741771;186;919086;-60
2022/04/03 12:02:11;;;;;;;6.00;5.10;;;;;;;;;;746528;184;918758;-60
2022/04/03 12:04:37;;;;;;;9.07;3.58;;;;;;;;;;749547;187;919012;-60
2022/04/03 12:07:04;;;;;;;5.70;3.70;;;;;;;;;;743957;184;919048;-59
2022/04/03 12:09:32;;;;;;;7.60;4.83;;;;;;;;;;746133;186;918836;-60
2022/04/03 12:12:01;;;;;;;23.90;7.87;;;;;;;;;;751879;186;628309;-60
2022/04/03 12:14:25;;;;;;;9.00;5.17;;;;;;;;;;745830;184;939781;-60
2022/04/03 12:16:58;;;;;;;6.70;4.13;;;;;;;;;;743665;184;920062;-60
2022/04/03 12:19:23;;;;;;;14.03;5.43;;;;;;;;;;740553;184;919628;-61
2022/04/03 12:21:51;;;;;;;7.33;4.13;;;;;;;;;;746270;184;917914;-60
2022/04/03 12:24:16;;;;;;;11.80;6.50;;;;;;;;;;740112;184;918993;-60
2022/04/03 12:26:43;;;;;;;6.90;4.22;;;;;;;;;;743524;184;918981;-60
2022/04/03 12:29:09;;;;;;;3.67;2.73;;;;;;;;;;739620;187;918809;-61
2022/04/03 12:31:35;;;;;;;6.10;4.30;;;;;;;;;;740134;186;919849;-60
2022/04/03 12:34:17;;;;;;;7.03;4.03;;;;;;;;;;738715;186;1021269;-60
2022/04/03 12:36:43;;;;;;;7.33;3.10;;;;;;;;;;739615;187;919234;-60
2022/04/03 12:39:15;;;;;;;6.00;3.87;;;;;;;;;;739339;186;923459;-60
2022/04/03 12:41:41;;;;;;;8.77;5.55;;;;;;;;;;748810;184;919408;-61
2022/04/03 12:44:06;;;;;;;12.60;5.27;;;;;;;;;;745339;187;919018;-60
2022/04/03 12:46:35;;;;;;;14.97;7.30;;;;;;;;;;741821;183;919362;-61
2022/04/03 12:49:01;;;;;;;12.73;4.10;;;;;;;;;;740322;184;920451;-60
2022/04/03 12:51:27;;;;;;;9.80;4.47;;;;;;;;;;745991;183;917949;-61
2022/04/03 12:53:55;;;;;;;5.15;3.85;;;;;;;;;;723493;190;1041007;-60
2022/04/03 12:56:18;;;;;;;7.23;3.70;;;;;;;;;;745624;185;920727;-60
2022/04/03 12:58:50;;;;;;;4.00;2.93;;;;;;;;;;750288;185;917046;-60
2022/04/03 13:01:16;;;;;;;5.60;4.40;;;;;;;;;;743711;186;906018;-61
2022/04/03 13:03:42;;;;;;;7.43;3.20;;;;;;;;;;750291;184;914524;-61
2022/04/03 13:06:23;;;;;;;4.90;3.23;;;;;;;;;;742018;186;917733;-60
2022/04/03 13:08:50;;;;;;;7.40;4.80;;;;;;;;;;742114;184;919937;-60
2022/04/03 13:11:20;;;;;;;7.43;4.87;;;;;;;;;;741374;186;918568;-60
2022/04/03 13:13:46;;;;;;;6.00;4.10;;;;;;;;;;740453;187;918973;-60
2022/04/03 13:16:12;;;;;;;5.70;3.73;;;;;;;;;;742011;184;915388;-60
2022/04/03 13:18:38;;;;;;;6.03;3.43;;;;;;;;;;748846;185;932658;-60
2022/04/03 13:21:03;;;;;;;6.83;4.00;;;;;;;;;;744320;185;915073;-60
2022/04/03 13:23:29;;;;;;;7.80;4.53;;;;;;;;;;744138;186;918958;-61
2022/04/03 13:25:56;;;;;;;7.00;4.10;;;;;;;;;;744664;186;927157;-60
2022/04/03 13:28:21;;;;;;;5.60;3.60;;;;;;;;;;741644;186;917970;-60
2022/04/03 13:30:48;;;;;;;17.80;4.43;;;;;;;;;;744647;186;919071;-60
2022/04/03 13:33:14;;;;;;;7.30;3.87;;;;;;;;;;743626;187;919841;-60
2022/04/03 13:35:39;;;;;;;6.40;3.80;;;;;;;;;;753363;185;922652;-61
2022/04/03 13:38:05;;;;;;;7.17;4.17;;;;;;;;;;740628;187;919730;-60
2022/04/03 13:40:31;;;;;;;7.43;4.40;;;;;;;;;;745733;187;943852;-60
2022/04/03 13:42:57;;;;;;;12.37;4.70;;;;;;;;;;749863;187;919523;-62
2022/04/03 13:45:56;;;;;;;7.20;4.20;;;;;;;;;;742302;187;919738;-60
2022/04/03 13:47:49;;;;;;;16.30;8.20;;;;;;;;;;741854;186;919720;-61
2022/04/03 13:50:15;;;;;;;10.18;7.43;;;;;;;;;;745093;187;1020999;-60
2022/04/03 13:52:41;;;;;;;3.90;2.43;;;;;;;;;;750011;182;920213;-60
2022/04/03 13:55:07;;;;;;;3.90;2.67;;;;;;;;;;739810;187;918291;-61
2022/04/03 13:57:33;;;;;;;7.70;4.87;;;;;;;;;;738458;184;919409;-60
2022/04/03 13:59:59;;;;;;;6.80;3.78;;;;;;;;;;747164;187;918994;-60
2022/04/03 14:02:24;;;;;;;8.67;4.27;;;;;;;;;;742227;184;927252;-60
2022/04/03 14:04:50;;;;;;;4.60;2.90;;;;;;;;;;740767;184;920666;-60
2022/04/03 14:07:16;;;;;;;3.62;2.37;;;;;;;;;;752258;185;921539;-60
2022/04/03 14:09:42;;;;;;;5.73;3.10;;;;;;;;;;747045;184;991102;-60
2022/04/03 14:12:08;;;;;;;10.23;3.50;;;;;;;;;;743995;185;917529;-60
2022/04/03 14:14:35;;;;;;;2.85;2.42;;;;;;;;;;750492;184;914137;-60